Time;durP1;ratioP1;P1;durP2;ratioP2;P2;SDS_P1;SDS_P2;PMS_P1;PMS_P2;Temp;Humidity;BMP_temperature;BMP_pressure;BME280_temperature;BME280_humidity;BME280_pressure;Samples;Min_cycle;Max_cycle;Signal;HPM_P1;HPM_P2
2021/11/05 00:01:56;;;;;;;3.00;1.70;;;6.70;99.90;;;;;;4457131;27;655272;-67
2021/11/05 00:04:46;;;;;;;3.13;1.90;;;6.60;99.90;;;;;;4472732;27;655950;-66
2021/11/05 00:07:33;;;;;;;2.40;1.70;;;6.70;99.90;;;;;;4457960;27;656064;-67
2021/11/05 00:10:21;;;;;;;3.00;1.53;;;6.60;99.90;;;;;;4460315;27;655883;-66
2021/11/05 00:13:09;;;;;;;4.13;2.00;;;6.60;99.90;;;;;;4481944;27;656286;-67
2021/11/05 00:15:56;;;;;;;3.00;1.97;;;6.60;99.90;;;;;;4461074;27;655202;-66
2021/11/05 00:18:44;;;;;;;2.50;1.60;;;6.50;99.90;;;;;;4481945;27;656670;-66
2021/11/05 00:21:33;;;;;;;2.60;1.77;;;6.40;99.90;;;;;;4457058;27;655383;-67
2021/11/05 00:24:20;;;;;;;1.53;1.13;;;6.50;99.90;;;;;;4474016;27;655705;-66
2021/11/05 00:27:08;;;;;;;2.77;1.17;;;6.50;99.90;;;;;;4485110;27;656539;-66
2021/11/05 00:29:55;;;;;;;3.17;1.30;;;6.50;99.90;;;;;;4466075;27;655241;-66
2021/11/05 00:32:43;;;;;;;2.80;1.70;;;6.50;99.90;;;;;;4480747;27;656718;-66
2021/11/05 00:35:31;;;;;;;4.33;1.90;;;6.60;99.90;;;;;;4459781;27;655850;-66
2021/11/05 00:38:20;;;;;;;2.53;1.53;;;6.60;99.90;;;;;;4478548;27;656426;-66
2021/11/05 00:41:07;;;;;;;2.90;1.50;;;6.60;99.90;;;;;;4461414;27;657138;-66
2021/11/05 00:43:55;;;;;;;3.23;1.80;;;6.60;99.90;;;;;;4480188;27;655562;-67
2021/11/05 00:46:42;;;;;;;3.03;1.90;;;6.60;99.90;;;;;;4461463;27;656630;-66
2021/11/05 00:49:30;;;;;;;2.20;1.43;;;6.60;99.90;;;;;;4481721;27;655440;-66
2021/11/05 00:52:17;;;;;;;4.57;1.67;;;6.50;99.90;;;;;;4455268;27;655560;-66
2021/11/05 00:55:07;;;;;;;3.30;1.80;;;6.50;99.90;;;;;;4480896;27;656405;-66
2021/11/05 00:57:54;;;;;;;2.30;1.53;;;6.40;99.90;;;;;;4455141;27;655585;-66
2021/11/05 01:00:42;;;;;;;2.87;1.80;;;6.40;99.90;;;;;;4457990;27;655620;-66
2021/11/05 01:03:29;;;;;;;5.03;1.80;;;6.50;99.90;;;;;;4474682;27;655558;-66
2021/11/05 01:06:18;;;;;;;3.37;1.80;;;6.50;99.90;;;;;;4455386;27;655570;-66
2021/11/05 01:09:05;;;;;;;3.07;1.80;;;6.50;99.90;;;;;;4473521;27;656810;-66
2021/11/05 01:11:54;;;;;;;2.57;1.50;;;6.50;99.90;;;;;;4485087;27;657002;-67
2021/11/05 01:14:42;;;;;;;3.17;1.80;;;6.50;99.90;;;;;;4461084;27;655435;-66
2021/11/05 01:17:30;;;;;;;3.23;1.90;;;6.40;99.90;;;;;;4483094;27;655324;-66
2021/11/05 01:20:18;;;;;;;3.77;1.90;;;6.40;99.90;;;;;;4454513;27;656727;-67
2021/11/05 01:23:06;;;;;;;2.97;1.63;;;6.30;99.90;;;;;;4460347;27;656062;-67
2021/11/05 01:25:53;;;;;;;2.67;1.77;;;6.30;99.90;;;;;;4477872;27;657062;-67
2021/11/05 01:28:42;;;;;;;2.83;1.70;;;6.30;99.90;;;;;;4464084;27;655613;-67
2021/11/05 01:31:31;;;;;;;3.10;1.80;;;6.30;99.90;;;;;;4457018;28;655658;-67
2021/11/05 01:34:18;;;;;;;3.47;2.00;;;6.30;99.90;;;;;;4462635;28;656830;-68
2021/11/05 01:37:06;;;;;;;4.17;2.00;;;6.30;99.90;;;;;;4444111;28;655266;-67
2021/11/05 01:39:54;;;;;;;2.73;1.93;;;6.30;99.90;;;;;;4452590;28;655786;-67
2021/11/05 01:42:42;;;;;;;2.47;1.97;;;6.20;99.90;;;;;;4432951;28;655334;-67
2021/11/05 01:45:31;;;;;;;2.93;2.13;;;6.20;99.90;;;;;;4446856;28;655491;-66
2021/11/05 01:48:19;;;;;;;3.87;2.30;;;6.10;99.90;;;;;;4424347;28;655740;-67
2021/11/05 01:51:07;;;;;;;4.27;2.40;;;6.00;99.90;;;;;;4442566;28;656554;-67
2021/11/05 01:53:54;;;;;;;4.40;2.47;;;6.00;99.90;;;;;;4443171;28;655718;-67
2021/11/05 01:56:42;;;;;;;5.00;2.80;;;6.10;99.90;;;;;;4426206;28;656813;-68
2021/11/05 01:59:32;;;;;;;8.90;4.10;;;6.10;99.90;;;;;;4435932;28;655780;-67
2021/11/05 02:02:21;;;;;;;4.57;2.63;;;6.00;99.90;;;;;;4446649;28;656313;-67
2021/11/05 02:05:09;;;;;;;4.33;2.07;;;6.00;99.90;;;;;;4417700;28;656237;-67
2021/11/05 02:07:57;;;;;;;5.83;2.73;;;6.00;99.90;;;;;;4431985;28;655478;-67
2021/11/05 02:10:45;;;;;;;4.03;2.20;;;5.90;99.90;;;;;;4461164;28;656445;-67
2021/11/05 02:13:32;;;;;;;8.00;2.93;;;5.90;99.90;;;;;;4437530;28;656952;-67
2021/11/05 02:16:21;;;;;;;7.77;3.40;;;5.90;99.90;;;;;;4454492;28;656195;-67
2021/11/05 02:19:11;;;;;;;7.33;3.33;;;5.80;99.90;;;;;;4431880;28;656116;-68
2021/11/05 02:22:01;;;;;;;4.30;2.17;;;5.80;99.90;;;;;;4432571;28;656513;-67
2021/11/05 02:24:48;;;;;;;5.03;2.23;;;5.80;99.90;;;;;;4433504;28;656349;-67
2021/11/05 02:27:36;;;;;;;5.07;2.87;;;5.90;99.90;;;;;;4422908;28;655287;-67
2021/11/05 02:30:23;;;;;;;4.97;2.20;;;5.80;99.90;;;;;;4457397;27;656694;-67
2021/11/05 02:33:11;;;;;;;4.83;2.80;;;5.80;99.90;;;;;;4458976;27;655565;-67
2021/11/05 02:35:58;;;;;;;4.30;2.73;;;5.80;99.90;;;;;;4474401;27;656486;-67
2021/11/05 02:38:47;;;;;;;4.37;2.23;;;5.80;99.90;;;;;;4443524;27;655775;-67
2021/11/05 02:41:35;;;;;;;5.37;3.67;;;5.80;99.90;;;;;;4467382;27;655500;-67
2021/11/05 02:44:22;;;;;;;4.83;3.20;;;5.80;99.90;;;;;;4437514;27;656421;-67
2021/11/05 02:47:17;;;;;;;4.10;2.60;;;5.80;99.90;;;;;;4456597;27;655539;-67
2021/11/05 02:50:07;;;;;;;3.73;2.50;;;5.80;99.90;;;;;;4475765;27;655605;-67
2021/11/05 02:52:55;;;;;;;5.10;2.67;;;5.80;99.90;;;;;;4475384;27;655503;-67
2021/11/05 02:55:44;;;;;;;3.53;2.07;;;5.80;99.90;;;;;;4477140;27;656737;-67
2021/11/05 02:58:32;;;;;;;7.00;3.67;;;5.80;99.90;;;;;;4461225;27;655744;-67
2021/11/05 03:01:20;;;;;;;5.37;2.70;;;5.80;99.90;;;;;;4481047;27;655299;-67
2021/11/05 03:04:08;;;;;;;4.00;2.60;;;5.80;99.90;;;;;;4458389;27;656457;-67
2021/11/05 03:06:59;;;;;;;4.00;2.67;;;5.90;99.90;;;;;;4458501;28;655369;-67
2021/11/05 03:09:47;;;;;;;3.93;1.80;;;5.80;99.90;;;;;;4458605;28;656522;-67
2021/11/05 03:12:36;;;;;;;3.43;2.43;;;5.80;99.90;;;;;;4480096;27;656119;-67
2021/11/05 03:15:23;;;;;;;3.47;2.37;;;5.80;99.90;;;;;;4462572;27;655560;-67
2021/11/05 03:18:11;;;;;;;5.13;3.03;;;5.80;99.90;;;;;;4465345;27;655246;-67
2021/11/05 03:20:58;;;;;;;4.87;2.83;;;5.80;99.90;;;;;;4472492;27;656117;-68
2021/11/05 03:23:46;;;;;;;5.50;3.03;;;5.80;99.90;;;;;;4454508;27;655870;-67
2021/11/05 03:26:33;;;;;;;9.50;3.37;;;5.80;99.90;;;;;;4484233;27;655986;-67
2021/11/05 03:29:22;;;;;;;4.53;2.43;;;5.70;99.90;;;;;;4462852;27;655215;-67
2021/11/05 03:32:11;;;;;;;3.53;1.67;;;5.70;99.90;;;;;;4473978;27;655474;-67
2021/11/05 03:34:58;;;;;;;2.93;2.17;;;5.70;99.90;;;;;;4487903;27;656541;-67
2021/11/05 03:37:46;;;;;;;4.37;2.73;;;5.70;99.90;;;;;;4455687;27;655734;-67
2021/11/05 03:40:36;;;;;;;4.80;2.83;;;5.60;99.90;;;;;;4471583;27;656521;-67
2021/11/05 03:43:23;;;;;;;3.97;2.80;;;5.70;99.90;;;;;;4458604;27;655801;-66
2021/11/05 03:46:12;;;;;;;3.33;2.17;;;5.70;99.90;;;;;;4466204;27;655958;-66
2021/11/05 03:49:00;;;;;;;6.93;2.53;;;5.60;99.90;;;;;;4485657;27;655493;-67
2021/11/05 03:51:48;;;;;;;4.43;2.60;;;5.70;99.90;;;;;;4452145;27;656011;-66
2021/11/05 03:54:35;;;;;;;4.40;2.57;;;5.80;99.90;;;;;;4453217;27;655813;-66
2021/11/05 03:57:23;;;;;;;4.90;2.50;;;5.70;99.90;;;;;;4474530;27;656817;-66
2021/11/05 04:00:12;;;;;;;3.17;2.30;;;5.70;99.90;;;;;;4450414;27;655424;-66
2021/11/05 04:03:01;;;;;;;3.83;2.60;;;5.70;99.90;;;;;;4469532;27;655620;-66
2021/11/05 04:05:48;;;;;;;3.53;2.17;;;5.70;99.90;;;;;;4442261;27;655958;-66
2021/11/05 04:08:36;;;;;;;6.83;3.47;;;5.70;99.90;;;;;;4440154;27;655233;-66
2021/11/05 04:11:23;;;;;;;3.60;2.40;;;5.70;99.90;;;;;;4473082;27;656283;-66
2021/11/05 04:14:11;;;;;;;4.40;2.30;;;5.60;99.90;;;;;;4446607;27;656019;-66
2021/11/05 04:16:58;;;;;;;4.00;2.33;;;5.60;99.90;;;;;;4477286;27;656248;-67
2021/11/05 04:19:47;;;;;;;6.03;2.30;;;5.60;99.90;;;;;;4449598;27;655407;-67
2021/11/05 04:22:35;;;;;;;4.13;1.90;;;5.60;99.90;;;;;;4478443;27;655403;-66
2021/11/05 04:25:22;;;;;;;3.87;2.50;;;5.50;99.90;;;;;;4452523;27;657033;-66
2021/11/05 04:28:10;;;;;;;5.87;3.03;;;5.50;99.90;;;;;;4472406;27;655363;-66
2021/11/05 04:30:57;;;;;;;3.17;2.30;;;5.60;99.90;;;;;;4454085;27;657248;-66
2021/11/05 04:33:45;;;;;;;4.73;2.67;;;5.50;99.90;;;;;;4476018;27;655544;-66
2021/11/05 04:36:34;;;;;;;4.73;2.40;;;5.50;99.90;;;;;;4449373;27;656825;-66
2021/11/05 04:39:24;;;;;;;5.27;2.40;;;5.40;99.90;;;;;;4435934;28;655620;-66
2021/11/05 04:42:11;;;;;;;3.90;2.50;;;5.30;99.90;;;;;;4458074;27;656659;-66
2021/11/05 04:44:59;;;;;;;3.50;2.17;;;5.30;99.90;;;;;;4456428;27;655523;-66
2021/11/05 04:47:46;;;;;;;5.10;2.40;;;5.20;99.90;;;;;;4430566;27;655511;-66
2021/11/05 04:50:34;;;;;;;3.13;2.50;;;5.20;99.90;;;;;;4473439;27;655472;-66
2021/11/05 04:53:23;;;;;;;4.63;2.93;;;5.20;99.90;;;;;;4451896;27;655772;-66
2021/11/05 04:56:11;;;;;;;5.03;3.23;;;5.20;99.90;;;;;;4453975;27;655837;-66
2021/11/05 04:58:58;;;;;;;4.07;2.70;;;5.20;99.90;;;;;;4487743;27;656509;-67
2021/11/05 05:01:46;;;;;;;5.13;2.43;;;5.20;99.90;;;;;;4445599;27;655416;-66
2021/11/05 05:04:33;;;;;;;4.80;2.50;;;5.20;99.90;;;;;;4470262;27;656663;-66
2021/11/05 05:07:21;;;;;;;6.03;2.93;;;5.20;99.90;;;;;;4454836;27;656154;-66
2021/11/05 05:10:10;;;;;;;6.68;3.10;;;5.20;99.90;;;;;;4468784;27;657433;-66
2021/11/05 05:12:58;;;;;;;6.60;3.43;;;5.20;99.90;;;;;;4448424;27;656036;-66
2021/11/05 05:15:45;;;;;;;5.37;3.60;;;5.10;99.90;;;;;;4452618;27;655496;-66
2021/11/05 05:18:33;;;;;;;5.00;3.37;;;5.10;99.90;;;;;;4466212;27;655119;-66
2021/11/05 05:21:21;;;;;;;4.90;3.10;;;5.00;99.90;;;;;;4455433;27;655399;-66
2021/11/05 05:24:08;;;;;;;5.60;3.10;;;5.00;99.90;;;;;;4482789;27;656132;-67
2021/11/05 05:26:57;;;;;;;5.77;3.00;;;4.90;1.00;;;;;;4446326;27;657567;-66
2021/11/05 05:29:47;;;;;;;9.80;4.23;;;4.90;1.00;;;;;;4468765;27;654746;-66
2021/11/05 05:32:35;;;;;;;12.83;4.80;;;4.80;1.00;;;;;;4473413;27;654277;-66
2021/11/05 05:35:23;;;;;;;9.53;4.00;;;4.80;1.00;;;;;;4430579;28;656820;-66
2021/11/05 05:38:10;;;;;;;7.63;3.80;;;4.70;1.00;;;;;;4451309;27;654652;-66
2021/11/05 05:40:58;;;;;;;7.63;4.03;;;4.60;1.00;;;;;;4473128;27;655664;-67
2021/11/05 05:43:47;;;;;;;7.63;4.27;;;4.70;1.00;;;;;;4451457;27;654283;-66
2021/11/05 05:46:35;;;;;;;6.97;3.87;;;4.60;1.00;;;;;;4465267;28;654436;-66
2021/11/05 05:49:23;;;;;;;7.80;4.45;;;4.60;1.00;;;;;;4447277;27;654863;-67
2021/11/05 05:53:03;;;;;;;9.47;4.20;;;4.70;1.00;;;;;;4450928;27;654648;-66
2021/11/05 05:55:50;;;;;;;9.37;4.60;;;4.70;1.00;;;;;;4423091;27;654634;-66
2021/11/05 05:58:38;;;;;;;10.37;4.90;;;4.70;1.00;;;;;;4472558;27;655515;-66
2021/11/05 06:01:27;;;;;;;10.40;4.93;;;4.70;1.00;;;;;;4453984;27;655593;-66
2021/11/05 06:04:15;;;;;;;9.00;4.67;;;4.70;1.00;;;;;;4479709;27;655706;-66
2021/11/05 06:07:03;;;;;;;9.03;4.80;;;4.70;1.00;;;;;;4438498;27;655828;-66
2021/11/05 06:09:51;;;;;;;8.73;3.60;;;4.80;1.00;;;;;;4459335;27;655174;-66
2021/11/05 06:12:38;;;;;;;13.87;4.97;;;4.80;1.00;;;;;;4464588;27;654954;-66
2021/11/05 06:15:26;;;;;;;8.50;4.33;;;4.80;1.00;;;;;;4464567;27;655593;-66
2021/11/05 06:18:15;;;;;;;7.60;4.63;;;4.80;1.00;;;;;;4486083;27;655219;-66
2021/11/05 06:21:03;;;;;;;7.23;3.97;;;4.80;1.00;;;;;;4436287;27;655772;-66
2021/11/05 06:23:51;;;;;;;6.73;4.30;;;4.80;1.00;;;;;;4463437;27;654495;-66
2021/11/05 06:26:39;;;;;;;10.20;4.63;;;4.80;1.00;;;;;;4484422;27;654958;-66
2021/11/05 06:29:26;;;;;;;7.33;3.77;;;5.00;1.00;;;;;;4464920;27;655262;-66
2021/11/05 06:32:14;;;;;;;7.63;4.23;;;5.00;1.00;;;;;;4485035;27;655305;-66
2021/11/05 06:35:03;;;;;;;11.00;3.83;;;5.20;1.00;;;;;;4463856;27;654637;-66
2021/11/05 06:37:50;;;;;;;9.87;4.57;;;5.30;1.00;;;;;;4463650;27;656012;-66
2021/11/05 06:40:38;;;;;;;7.20;3.37;;;5.30;1.00;;;;;;4485045;27;654600;-66
2021/11/05 06:43:26;;;;;;;7.97;3.73;;;5.40;99.90;;;;;;4463379;27;654594;-66
2021/11/05 06:46:14;;;;;;;7.90;4.47;;;5.40;99.90;;;;;;4481359;27;657051;-66
2021/11/05 06:49:01;;;;;;;8.60;4.40;;;5.50;99.90;;;;;;4464553;27;655611;-66
2021/11/05 06:51:53;;;;;;;7.63;3.93;;;5.60;99.90;;;;;;4481067;27;656806;-66
2021/11/05 06:54:41;;;;;;;7.23;4.03;;;5.70;99.90;;;;;;4438867;27;655247;-66
2021/11/05 06:57:29;;;;;;;7.22;3.17;;;5.70;99.90;;;;;;4484516;27;657282;-66
2021/11/05 07:00:16;;;;;;;6.77;3.53;;;5.80;99.90;;;;;;4464937;27;655526;-67
2021/11/05 07:03:05;;;;;;;5.67;3.00;;;5.80;99.90;;;;;;4483310;27;655491;-67
2021/11/05 07:05:52;;;;;;;7.03;3.80;;;5.90;99.90;;;;;;4458081;27;656785;-67
2021/11/05 07:08:41;;;;;;;8.00;3.87;;;6.10;99.90;;;;;;4479842;28;655637;-67
2021/11/05 07:11:29;;;;;;;9.03;4.70;;;6.10;99.90;;;;;;4460618;28;656244;-67
2021/11/05 07:14:17;;;;;;;10.55;4.88;;;6.20;99.90;;;;;;4462706;28;656597;-74
2021/11/05 07:17:05;;;;;;;7.00;3.57;;;6.30;99.90;;;;;;4483133;28;656221;-74
2021/11/05 07:19:52;;;;;;;6.90;4.23;;;6.40;99.90;;;;;;4457387;28;656977;-74
2021/11/05 07:22:40;;;;;;;8.13;4.43;;;6.50;99.90;;;;;;4478532;28;655284;-73
2021/11/05 07:25:29;;;;;;;6.47;3.50;;;6.40;99.90;;;;;;4456672;28;656006;-76
2021/11/05 07:28:17;;;;;;;8.60;5.03;;;6.50;99.90;;;;;;4464722;28;655631;-77
2021/11/05 07:31:04;;;;;;;22.80;3.80;;;6.60;99.90;;;;;;4469971;28;655704;-73
2021/11/05 07:33:52;;;;;;;9.50;4.10;;;6.60;99.90;;;;;;4442199;28;656638;-74
2021/11/05 07:36:39;;;;;;;8.40;4.20;;;6.60;99.90;;;;;;4458626;28;656101;-74
2021/11/05 07:39:27;;;;;;;7.77;4.17;;;6.60;99.90;;;;;;4442942;28;655386;-75
2021/11/05 07:42:16;;;;;;;6.60;3.20;;;6.70;99.90;;;;;;4434177;28;655426;-74
2021/11/05 07:45:05;;;;;;;6.33;4.10;;;6.90;11.00;;;;;;4436951;28;655703;-77
2021/11/05 07:47:56;;;;;;;7.73;3.60;;;7.00;52.00;;;;;;4440878;28;656146;-76
2021/11/05 07:50:43;;;;;;;5.23;3.40;;;7.10;1.80;;;;;;4422589;28;656192;-77
2021/11/05 07:53:31;;;;;;;10.17;4.67;;;7.10;1.00;;;;;;4443631;28;655463;-77
2021/11/05 07:56:18;;;;;;;8.70;3.87;;;7.20;3.00;;;;;;4459578;28;656301;-75
2021/11/05 07:59:08;;;;;;;4.47;2.93;;;7.30;1.00;;;;;;4420297;28;654651;-73
2021/11/05 08:01:55;;;;;;;11.33;4.20;;;7.40;1.00;;;;;;4443517;28;654386;-73
2021/11/05 08:04:43;;;;;;;7.80;4.07;;;7.50;1.00;;;;;;4457174;27;656205;-75
2021/11/05 08:07:31;;;;;;;6.83;3.70;;;7.90;1.00;;;;;;4436439;28;654565;-76
2021/11/05 08:10:21;;;;;;;5.67;2.83;;;7.90;99.90;;;;;;4455397;27;654683;-77
2021/11/05 08:13:08;;;;;;;5.57;3.23;;;7.80;99.90;;;;;;4445215;27;656126;-75
2021/11/05 08:15:57;;;;;;;6.77;3.70;;;7.80;99.90;;;;;;4465462;27;655691;-78
2021/11/05 08:18:46;;;;;;;6.40;3.50;;;8.00;99.90;;;;;;4461693;28;655293;-76
2021/11/05 08:21:33;;;;;;;6.23;3.87;;;7.90;99.90;;;;;;4466670;28;655911;-74
2021/11/05 08:24:21;;;;;;;7.30;4.30;;;7.80;99.90;;;;;;4443116;28;656220;-75
2021/11/05 08:27:09;;;;;;;6.87;3.77;;;7.90;99.90;;;;;;4460323;27;656766;-73
2021/11/05 08:29:56;;;;;;;6.20;3.90;;;7.80;99.90;;;;;;4447878;28;655765;-76
2021/11/05 08:32:46;;;;;;;5.67;3.80;;;7.70;99.90;;;;;;4468170;28;655962;-75
2021/11/05 08:35:35;;;;;;;6.67;4.10;;;7.70;99.90;;;;;;4459808;27;656179;-76
2021/11/05 08:38:25;;;;;;;4.63;3.30;;;7.60;99.90;;;;;;4457194;27;656226;-77
2021/11/05 08:41:16;;;;;;;5.30;3.23;;;7.60;99.90;;;;;;4456266;27;657008;-74
2021/11/05 08:44:05;;;;;;;6.57;3.78;;;7.60;99.90;;;;;;4456453;27;655531;-74
2021/11/05 08:46:52;;;;;;;8.87;4.30;;;7.80;99.90;;;;;;4448207;27;656308;-76
2021/11/05 08:49:42;;;;;;;4.53;3.37;;;8.10;99.90;;;;;;4488228;27;655787;-77
2021/11/05 08:52:30;;;;;;;4.87;3.47;;;8.30;1.00;;;;;;4484128;27;656257;-75
2021/11/05 08:55:19;;;;;;;6.73;3.60;;;8.20;1.00;;;;;;4454268;27;655179;-77
2021/11/05 08:58:07;;;;;;;7.23;4.23;;;8.10;1.00;;;;;;4455767;27;655034;-76
2021/11/05 09:00:55;;;;;;;4.43;3.20;;;8.10;99.90;;;;;;4481318;27;654867;-76
2021/11/05 09:03:42;;;;;;;4.23;3.10;;;8.30;1.00;;;;;;4460336;27;655757;-76
2021/11/05 09:06:32;;;;;;;4.67;3.10;;;8.30;1.00;;;;;;4475690;27;654657;-75
2021/11/05 09:09:21;;;;;;;7.53;3.30;;;8.20;1.00;;;;;;4483795;27;654872;-74
2021/11/05 09:12:09;;;;;;;7.10;3.27;;;8.10;1.00;;;;;;4443833;27;654583;-74
2021/11/05 09:14:57;;;;;;;5.25;3.65;;;8.10;1.00;;;;;;4463178;27;654573;-75
2021/11/05 09:17:44;;;;;;;5.10;3.30;;;8.10;1.00;;;;;;4483734;27;654726;-74
2021/11/05 09:20:33;;;;;;;5.07;3.50;;;8.10;1.00;;;;;;4464399;27;655185;-75
2021/11/05 09:23:24;;;;;;;9.15;3.65;;;8.10;1.00;;;;;;4465795;27;654599;-75
2021/11/05 09:26:11;;;;;;;5.03;3.67;;;8.30;1.00;;;;;;4462182;27;654545;-77
2021/11/05 09:28:59;;;;;;;9.30;4.13;;;8.40;99.90;;;;;;4481544;27;654823;-76
2021/11/05 09:31:47;;;;;;;6.73;3.70;;;8.40;99.90;;;;;;4458028;27;655515;-76
2021/11/05 09:34:34;;;;;;;7.43;3.60;;;8.90;1.00;;;;;;4481028;27;655730;-77
2021/11/05 09:37:22;;;;;;;5.20;3.43;;;9.20;1.00;;;;;;4468086;27;657580;-77
2021/11/05 09:40:15;;;;;;;5.90;3.67;;;9.40;1.00;;;;;;4481269;27;654497;-76
2021/11/05 09:43:02;;;;;;;4.37;2.87;;;9.20;99.90;;;;;;4453319;27;656186;-76
2021/11/05 09:45:50;;;;;;;3.93;2.93;;;8.90;40.30;;;;;;4484550;27;655311;-75
2021/11/05 09:48:38;;;;;;;4.47;2.47;;;8.60;99.90;;;;;;4465852;27;656903;-75
2021/11/05 09:51:26;;;;;;;6.33;3.50;;;8.40;1.00;;;;;;4455726;27;655782;-76
2021/11/05 09:54:14;;;;;;;5.57;3.60;;;8.50;1.00;;;;;;4484585;27;654524;-76
2021/11/05 09:57:04;;;;;;;8.10;4.03;;;8.80;1.00;;;;;;4456057;27;654635;-75
2021/11/05 09:59:51;;;;;;;6.93;3.60;;;8.80;1.00;;;;;;4457905;27;654457;-77
2021/11/05 10:02:39;;;;;;;7.30;3.83;;;8.80;1.00;;;;;;4480064;27;654315;-75
2021/11/05 10:05:27;;;;;;;5.77;3.77;;;9.10;1.00;;;;;;4460742;27;654204;-74
2021/11/05 10:08:14;;;;;;;7.67;3.50;;;9.50;99.90;;;;;;4482784;27;654537;-76
2021/11/05 10:11:19;;;;;;;6.07;3.60;;;9.60;37.40;;;;;;4457728;27;655555;-76
2021/11/05 10:14:18;;;;;;;3.60;2.63;;;9.90;1.00;;;;;;4446094;27;655389;-77
2021/11/05 10:17:07;;;;;;;4.53;3.20;;;10.20;1.00;;;;;;4462905;27;654546;-75
2021/11/05 10:19:57;;;;;;;4.60;2.87;;;10.50;1.00;;;;;;4483476;27;655292;-74
2021/11/05 10:22:50;;;;;;;8.07;2.90;;;10.80;99.90;;;;;;4471324;27;655767;-73
2021/11/05 10:25:38;;;;;;;5.63;2.87;;;10.80;1.00;;;;;;4451876;27;658024;-73
2021/11/05 10:28:27;;;;;;;4.50;2.97;;;10.60;1.00;;;;;;4457737;27;655614;-75
2021/11/05 10:31:18;;;;;;;4.33;2.70;;;10.80;99.90;;;;;;4465286;27;656067;-74
2021/11/05 10:34:06;;;;;;;4.13;3.03;;;10.60;99.90;;;;;;4436031;27;656988;-73
2021/11/05 10:36:54;;;;;;;6.23;3.70;;;10.50;99.90;;;;;;4449439;28;657668;-75
2021/11/05 10:39:52;;;;;;;6.47;3.40;;;10.50;99.90;;;;;;4440529;27;657654;-74
2021/11/05 10:42:44;;;;;;;5.90;3.60;;;10.20;99.90;;;;;;4424059;28;656159;-75
2021/11/05 10:45:32;;;;;;;7.70;3.73;;;10.40;99.90;;;;;;4408835;28;656625;-74
2021/11/05 10:48:23;;;;;;;7.20;3.60;;;10.40;99.90;;;;;;4439820;28;657515;-75
2021/11/05 10:51:11;;;;;;;8.13;3.90;;;10.20;99.90;;;;;;4443603;28;656613;-75
2021/11/05 10:53:59;;;;;;;8.73;4.17;;;10.00;99.90;;;;;;4458245;28;657541;-75
2021/11/05 10:56:47;;;;;;;9.67;4.60;;;9.60;99.90;;;;;;4429467;28;656964;-76
2021/11/05 10:59:34;;;;;;;6.72;3.97;;;9.90;1.00;;;;;;4451048;28;656168;-76
2021/11/05 11:02:24;;;;;;;5.33;2.97;;;10.10;99.90;;;;;;4429466;28;654775;-74
2021/11/05 11:05:31;;;;;;;4.93;3.57;;;10.30;99.90;;;;;;4434638;28;656725;-76
2021/11/05 11:08:20;;;;;;;5.63;3.27;;;10.20;93.90;;;;;;4439125;28;656954;-77
2021/11/05 11:11:20;;;;;;;6.57;3.90;;;10.30;78.90;;;;;;4424849;28;657677;-76
2021/11/05 11:14:08;;;;;;;5.13;2.83;;;10.70;99.90;;;;;;4427980;28;656924;-77
2021/11/05 11:17:00;;;;;;;5.33;3.27;;;11.20;1.00;;;;;;4435472;28;656828;-76
2021/11/05 11:19:48;;;;;;;6.10;3.57;;;11.70;1.00;;;;;;4455237;28;656037;-75
2021/11/05 11:22:37;;;;;;;4.60;3.00;;;12.00;99.90;;;;;;4427589;28;656642;-75
2021/11/05 11:25:25;;;;;;;5.60;3.00;;;11.80;2.90;;;;;;4459144;28;656010;-76
2021/11/05 11:28:13;;;;;;;6.93;3.17;;;12.20;1.00;;;;;;4427417;28;657223;-74
2021/11/05 11:31:01;;;;;;;5.67;3.50;;;12.20;1.00;;;;;;4457586;28;655382;-74
2021/11/05 11:33:50;;;;;;;5.47;3.80;;;12.90;1.00;;;;;;4486364;27;658366;-74
2021/11/05 11:36:40;;;;;;;5.07;3.50;;;13.40;1.00;;;;;;4460770;27;656582;-74
2021/11/05 11:39:30;;;;;;;7.23;3.57;;;14.00;99.90;;;;;;4456155;27;655606;-77
2021/11/05 11:42:18;;;;;;;6.40;3.37;;;14.20;99.90;;;;;;4469024;27;657203;-75
2021/11/05 11:45:08;;;;;;;4.67;3.03;;;14.20;98.40;;;;;;4473781;27;656502;-75
2021/11/05 11:47:58;;;;;;;5.17;3.73;;;13.60;1.00;;;;;;4475170;27;656665;-74
2021/11/05 11:50:45;;;;;;;6.63;3.57;;;13.50;1.00;;;;;;4484593;27;655882;-74
2021/11/05 11:53:33;;;;;;;5.40;3.40;;;13.20;1.00;;;;;;4488230;27;655163;-73
2021/11/05 11:56:30;;;;;;;4.93;3.10;;;12.60;1.00;;;;;;4472046;27;655472;-76
2021/11/05 11:59:18;;;;;;;6.00;3.30;;;12.30;1.00;;;;;;4464878;27;656025;-77
2021/11/05 12:02:21;;;;;;;6.43;3.70;;;13.20;17.10;;;;;;4473930;27;656019;-75
2021/11/05 12:05:36;;;;;;;6.40;4.10;;;12.90;1.00;;;;;;4467241;27;657364;-77
2021/11/05 12:08:27;;;;;;;7.40;3.60;;;12.90;1.00;;;;;;4435938;27;655917;-77
2021/11/05 12:11:27;;;;;;;7.20;3.70;;;13.00;1.00;;;;;;4418878;28;655808;-73
2021/11/05 12:14:17;;;;;;;6.33;3.40;;;12.60;1.00;;;;;;4451680;27;656307;-75
2021/11/05 12:17:05;;;;;;;6.27;3.23;;;12.90;1.00;;;;;;4483744;27;655514;-75
2021/11/05 12:19:55;;;;;;;5.00;3.50;;;13.50;1.00;;;;;;4457236;27;656465;-77
2021/11/05 12:22:42;;;;;;;4.00;2.90;;;13.00;1.00;;;;;;4465677;27;656469;-76
2021/11/05 12:25:30;;;;;;;4.47;3.00;;;14.70;1.00;;;;;;4491573;27;655017;-76
2021/11/05 12:28:19;;;;;;;5.70;3.10;;;14.70;1.00;;;;;;4447434;27;656415;-75
2021/11/05 12:31:30;;;;;;;5.60;3.22;;;15.10;1.00;;;;;;4454465;27;656101;-77
2021/11/05 12:34:25;;;;;;;6.43;3.27;;;13.80;1.00;;;;;;4440234;27;656747;-77
2021/11/05 12:37:13;;;;;;;5.87;3.30;;;13.00;1.00;;;;;;4463908;27;656079;-77
2021/11/05 12:40:31;;;;;;;6.33;3.57;;;12.90;1.00;;;;;;4462205;27;656887;-78
2021/11/05 12:43:49;;;;;;;6.97;3.33;;;12.70;1.00;;;;;;4463598;27;655788;-77
2021/11/05 12:46:44;;;;;;;6.83;3.57;;;13.00;1.00;;;;;;4460012;27;655118;-77
2021/11/05 12:49:32;;;;;;;9.33;3.80;;;13.20;1.00;;;;;;4468013;27;656184;-77
2021/11/05 12:52:24;;;;;;;6.17;3.63;;;12.10;1.00;;;;;;4483321;27;656253;-77
2021/11/05 12:55:12;;;;;;;7.17;3.67;;;12.00;1.00;;;;;;4455962;27;655460;-77
2021/11/05 12:58:01;;;;;;;6.50;3.90;;;11.70;1.00;;;;;;4489190;27;656335;-78
2021/11/05 13:00:50;;;;;;;6.33;3.57;;;10.90;1.00;;;;;;4453223;27;655601;-77
2021/11/05 13:03:39;;;;;;;6.70;3.57;;;10.40;1.00;;;;;;4451898;27;655961;-77
2021/11/05 13:06:34;;;;;;;5.30;3.23;;;10.20;1.00;;;;;;4467165;27;655689;-77
2021/11/05 13:09:28;;;;;;;4.37;3.03;;;10.10;1.00;;;;;;4436577;27;655998;-77
2021/11/05 13:12:16;;;;;;;6.13;3.37;;;9.90;57.20;;;;;;4440052;27;655630;-78
2021/11/05 13:15:04;;;;;;;4.00;2.63;;;9.80;99.90;;;;;;4483082;27;655876;-77
2021/11/05 13:17:53;;;;;;;6.43;4.07;;;9.60;99.90;;;;;;4463736;27;655350;-77
2021/11/05 13:20:44;;;;;;;6.55;4.03;;;9.50;99.90;;;;;;4464426;27;655828;-78
2021/11/05 13:23:34;;;;;;;9.87;4.60;;;9.50;99.90;;;;;;4464124;27;656138;-77
2021/11/05 13:26:28;;;;;;;7.60;4.27;;;9.50;1.00;;;;;;4461905;27;655591;-77
2021/11/05 13:29:16;;;;;;;9.10;4.67;;;9.40;1.00;;;;;;4443083;27;654447;-77
2021/11/05 13:32:14;;;;;;;9.77;4.33;;;9.30;1.00;;;;;;4468931;28;655169;-77
2021/11/05 13:35:01;;;;;;;8.33;4.37;;;9.40;99.90;;;;;;4418666;28;654986;-78
2021/11/05 13:37:51;;;;;;;6.23;3.87;;;9.30;99.90;;;;;;4468862;28;656143;-75
2021/11/05 13:40:44;;;;;;;6.47;4.10;;;9.20;99.90;;;;;;4443506;28;656960;-77
2021/11/05 13:43:33;;;;;;;8.23;4.23;;;9.00;1.00;;;;;;4438993;28;655495;-78
2021/11/05 13:46:25;;;;;;;8.13;4.70;;;9.00;1.00;;;;;;4447568;28;654837;-77
2021/11/05 13:49:16;;;;;;;8.67;4.43;;;8.90;99.90;;;;;;4443174;28;655523;-77
2021/11/05 13:52:07;;;;;;;9.20;4.40;;;8.90;1.00;;;;;;4439246;28;656491;-75
2021/11/05 13:54:57;;;;;;;9.47;4.13;;;8.80;1.00;;;;;;4459125;28;654986;-75
2021/11/05 13:57:45;;;;;;;8.75;4.03;;;8.80;99.90;;;;;;4463111;28;655178;-75
2021/11/05 14:00:38;;;;;;;7.53;4.43;;;8.80;1.00;;;;;;4443236;27;656787;-74
2021/11/05 14:03:27;;;;;;;8.30;4.53;;;8.80;1.00;;;;;;4434249;28;654296;-74
2021/11/05 14:06:14;;;;;;;11.63;4.80;;;8.80;99.90;;;;;;4468301;28;654728;-75
2021/11/05 14:09:02;;;;;;;7.87;4.73;;;8.80;99.90;;;;;;4440473;28;658682;-75
2021/11/05 14:11:53;;;;;;;10.23;5.23;;;9.20;1.00;;;;;;4466761;28;656595;-77
2021/11/05 14:14:49;;;;;;;8.93;4.47;;;9.30;99.90;;;;;;4424831;27;655239;-75
2021/11/05 14:17:43;;;;;;;9.43;4.70;;;9.10;99.90;;;;;;4444241;28;656169;-77
2021/11/05 14:20:32;;;;;;;8.40;4.50;;;8.90;1.00;;;;;;4446682;28;655572;-75
2021/11/05 14:23:28;;;;;;;9.30;5.10;;;8.90;1.00;;;;;;4470593;28;655035;-75
2021/11/05 14:26:20;;;;;;;10.00;4.73;;;8.80;1.00;;;;;;4421364;27;655156;-76
2021/11/05 14:29:11;;;;;;;7.63;4.70;;;8.80;99.80;;;;;;4438576;28;656326;-77
2021/11/05 14:32:02;;;;;;;8.43;5.20;;;8.70;99.90;;;;;;4443257;28;657079;-76
2021/11/05 14:34:52;;;;;;;10.00;5.88;;;8.70;99.90;;;;;;4444409;28;655393;-75
2021/11/05 14:37:42;;;;;;;8.90;5.30;;;8.70;1.00;;;;;;4443945;28;656354;-75
2021/11/05 14:40:30;;;;;;;12.77;6.20;;;8.60;99.90;;;;;;4469417;28;655227;-75
2021/11/05 14:43:19;;;;;;;8.77;5.70;;;8.50;1.00;;;;;;4438958;28;658012;-74